createdAt,value
2023-05-15T00:04:04.740Z,85
2023-05-15T00:09:02.005Z,85
2023-05-15T00:14:01.777Z,85
2023-05-15T00:19:01.869Z,86
2023-05-15T00:24:01.971Z,86
2023-05-15T00:28:59.398Z,87
2023-05-15T00:33:59.409Z,88
2023-05-15T00:38:58.502Z,89
2023-05-15T00:43:59.011Z,89
2023-05-15T00:48:56.660Z,90
2023-05-15T00:53:56.479Z,90
2023-05-15T00:58:55.519Z,90
2023-05-15T01:03:55.047Z,90
2023-05-15T01:08:53.287Z,90
2023-05-15T01:13:52.803Z,90
2023-05-15T01:18:53.115Z,90
2023-05-15T01:23:51.964Z,90
2023-05-15T01:28:51.168Z,90
2023-05-15T01:33:50.793Z,90
2023-05-15T01:38:50.758Z,90
2023-05-15T01:43:50.211Z,90
2023-05-15T01:48:50.706Z,90
2023-05-15T01:53:47.963Z,90
2023-05-15T01:58:47.654Z,90
2023-05-15T02:03:48.011Z,90
2023-05-15T02:08:47.554Z,90
2023-05-15T02:13:47.029Z,89
2023-05-15T02:18:47.318Z,89
2023-05-15T02:23:46.717Z,89
2023-05-15T02:28:49.310Z,90
2023-05-15T02:33:44.325Z,91
2023-05-15T02:38:43.845Z,91
2023-05-15T02:43:43.111Z,91
2023-05-15T02:48:44.003Z,91
2023-05-15T02:53:40.983Z,91
2023-05-15T02:58:40.863Z,91
2023-05-15T03:00:09.572Z,91
2023-05-15T03:05:01.543Z,91
2023-05-15T03:09:59.930Z,92
2023-05-15T03:14:59.560Z,92
2023-05-15T03:19:59.668Z,92
2023-05-15T03:24:59.037Z,93
2023-05-15T03:29:58.402Z,93
2023-05-15T03:34:58.406Z,93
2023-05-15T03:59:21.519Z,94
2023-05-15T04:04:31.123Z,94
2023-05-15T04:09:29.322Z,95
2023-05-15T04:14:29.466Z,95
2023-05-15T04:19:29.528Z,95
2023-05-15T04:24:28.660Z,95
2023-05-15T04:29:28.907Z,95
2023-05-15T04:34:28.666Z,95
2023-05-15T04:39:29.955Z,95
2023-05-15T04:44:26.992Z,96
2023-05-15T04:49:26.424Z,96
2023-05-15T04:59:21.906Z,96
2023-05-15T05:04:02.541Z,96
2023-05-15T05:09:03.097Z,95
2023-05-15T05:14:00.400Z,95
2023-05-15T05:19:00.058Z,95
2023-05-15T05:24:00.130Z,94
2023-05-15T05:28:59.206Z,94
2023-05-15T05:33:58.770Z,93
2023-05-15T05:38:58.711Z,93
2023-05-15T05:43:58.202Z,92
2023-05-15T05:48:58.717Z,91
2023-05-15T05:53:56.119Z,91
2023-05-15T05:58:56.195Z,90
2023-05-15T06:03:55.318Z,90
2023-05-15T06:08:56.435Z,89
2023-05-15T06:13:53.120Z,88
2023-05-15T06:18:52.979Z,88
2023-05-15T06:23:53.382Z,87
2023-05-15T06:28:52.657Z,86
2023-05-15T06:33:52.317Z,86
2023-05-15T06:38:51.597Z,85
2023-05-15T06:48:50.760Z,84
2023-05-15T06:53:51.448Z,83
2023-05-15T06:58:48.926Z,82
2023-05-15T07:00:09.885Z,81
2023-05-15T07:05:09.624Z,80
2023-05-15T07:10:08.757Z,80
2023-05-15T07:15:07.847Z,79
2023-05-15T07:20:07.844Z,78
2023-05-15T07:25:07.203Z,78
2023-05-15T07:30:08.211Z,78
2023-05-15T07:35:05.481Z,77
2023-05-15T07:40:05.465Z,76
2023-05-15T07:50:04.339Z,74
2023-05-15T07:55:02.979Z,74
2023-05-15T09:04:01.126Z,66
2023-05-15T09:09:00.624Z,66
2023-05-15T09:13:59.803Z,67
2023-05-15T09:18:59.474Z,68
2023-05-15T09:23:59.599Z,66
2023-05-15T09:28:58.782Z,66
2023-05-15T09:33:59.360Z,65
2023-05-15T09:38:56.893Z,65
2023-05-15T09:43:56.815Z,65
2023-05-15T09:48:56.948Z,65
2023-05-15T09:53:56.595Z,63
2023-05-15T09:58:55.050Z,65
2023-05-15T10:03:54.849Z,63
2023-05-15T10:08:54.846Z,62
2023-05-15T10:13:54.392Z,60
2023-05-15T10:18:52.416Z,61
2023-05-15T10:23:52.405Z,63
2023-05-15T10:28:55.287Z,62
2023-05-15T10:33:52.230Z,60
2023-05-15T10:38:50.802Z,59
2023-05-15T10:43:50.520Z,56
2023-05-15T10:48:50.490Z,62
2023-05-15T10:53:49.857Z,64
2023-05-15T10:58:49.032Z,62
2023-05-15T11:00:09.947Z,60
2023-05-15T11:15:10.263Z,61
2023-05-15T11:30:07.666Z,62
2023-05-15T11:35:07.039Z,59
2023-05-15T12:24:31.338Z,57
2023-05-15T12:59:06.343Z,51
2023-05-15T13:04:05.925Z,54
2023-05-15T13:09:04.277Z,53
2023-05-15T13:14:03.836Z,52
2023-05-15T13:19:04.218Z,53
2023-05-15T13:24:03.320Z,52
2023-05-15T13:29:01.356Z,51
2023-05-15T13:34:01.185Z,51
2023-05-15T13:39:01.401Z,49
2023-05-15T13:44:01.038Z,50
2023-05-15T13:48:59.474Z,53
2023-05-15T13:53:58.706Z,53
2023-05-15T13:58:58.827Z,51
2023-05-15T14:03:58.189Z,53
2023-05-15T14:08:57.586Z,53
2023-05-15T14:13:56.865Z,52
2023-05-15T14:18:56.987Z,53
2023-05-15T14:23:55.760Z,53
2023-05-15T14:28:56.654Z,54
2023-05-15T14:33:53.497Z,55
2023-05-15T14:38:53.349Z,52
2023-05-15T14:43:53.286Z,54
2023-05-15T14:48:52.798Z,55
2023-05-15T14:53:51.031Z,55
2023-05-15T14:58:50.586Z,55
2023-05-15T15:03:50.709Z,57
2023-05-15T15:08:51.961Z,56
2023-05-15T15:13:49.371Z,57
2023-05-15T15:18:49.105Z,56
2023-05-15T15:23:48.171Z,58
2023-05-15T15:28:47.633Z,57
2023-05-15T15:33:46.101Z,58
2023-05-15T15:38:46.005Z,59
2023-05-15T15:43:45.921Z,60
2023-05-15T15:48:45.431Z,60
2023-05-15T15:53:44.439Z,61
2023-05-15T15:58:43.809Z,60
2023-05-15T16:00:05.117Z,60
2023-05-15T16:05:03.962Z,59
2023-05-15T16:10:12.200Z,62
2023-05-15T16:20:01.652Z,62
2023-05-15T16:25:02.054Z,63
2023-05-15T16:30:01.169Z,64
2023-05-15T16:34:59.593Z,64
2023-05-15T16:39:59.168Z,65
2023-05-15T16:49:59.841Z,68
2023-05-15T16:54:56.878Z,69
2023-05-15T17:04:32.221Z,69
2023-05-15T17:09:31.767Z,70
2023-05-15T17:14:28.750Z,70
2023-05-15T17:19:28.364Z,71
2023-05-15T17:24:38.723Z,72
2023-05-15T17:29:26.140Z,72
2023-05-15T17:34:26.419Z,73
2023-05-15T17:39:26.144Z,73
2023-05-15T17:44:13.615Z,74
2023-05-15T17:49:13.166Z,75
2023-05-15T17:54:13.028Z,75
2023-05-15T17:59:01.436Z,75
2023-05-15T18:04:00.773Z,76
2023-05-15T18:09:00.201Z,77
2023-05-15T18:13:59.935Z,78
2023-05-15T18:18:59.315Z,79
2023-05-15T18:23:57.089Z,78
2023-05-15T18:28:56.932Z,79
2023-05-15T18:33:56.897Z,79
2023-05-15T18:38:56.714Z,79
2023-05-15T18:43:55.825Z,79
2023-05-15T18:48:55.358Z,79
2023-05-15T18:53:55.048Z,80
2023-05-15T18:58:54.485Z,80
2023-05-15T19:03:55.071Z,80
2023-05-15T19:08:52.622Z,80
2023-05-15T19:13:52.012Z,81
2023-05-15T19:18:52.571Z,81
2023-05-15T19:23:51.545Z,81
2023-05-15T19:28:50.204Z,82
2023-05-15T19:33:49.731Z,82
2023-05-15T19:38:49.810Z,82
2023-05-15T19:43:48.966Z,83
2023-05-15T19:48:48.541Z,83
2023-05-15T19:53:47.700Z,83
2023-05-15T19:58:47.573Z,84
2023-05-15T20:00:08.932Z,83
2023-05-15T20:15:07.209Z,83
2023-05-15T20:20:06.754Z,83
2023-05-15T20:25:06.203Z,83
2023-05-15T20:50:02.708Z,83
2023-05-15T20:55:02.265Z,84
2023-05-15T20:59:10.158Z,84
2023-05-15T21:04:06.536Z,85
2023-05-15T21:09:04.742Z,85
2023-05-15T21:14:04.459Z,85
2023-05-15T21:19:04.324Z,85
2023-05-15T21:24:03.625Z,85
2023-05-15T21:29:03.010Z,85
2023-05-15T21:34:02.572Z,84
2023-05-15T21:39:02.252Z,84
2023-05-15T21:44:01.795Z,84
2023-05-15T21:49:00.013Z,83
2023-05-15T21:53:59.734Z,83
2023-05-15T21:58:59.954Z,83
2023-05-15T22:03:59.389Z,83
2023-05-15T22:08:58.434Z,85
2023-05-15T22:13:57.826Z,85
2023-05-15T22:18:58.001Z,86
2023-05-15T22:23:56.797Z,86
2023-05-15T22:28:57.623Z,87
2023-05-15T22:33:54.636Z,87
2023-05-15T22:38:54.475Z,87
2023-05-15T22:43:54.583Z,87
2023-05-15T22:48:54.052Z,87
2023-05-15T22:53:52.305Z,87
2023-05-15T22:58:52.495Z,87
2023-05-15T23:03:52.255Z,86
2023-05-15T23:08:51.523Z,86
2023-05-15T23:13:50.845Z,86
2023-05-15T23:18:51.187Z,85
2023-05-15T23:23:51.027Z,85
2023-05-15T23:28:50.784Z,85
2023-05-15T23:33:49.322Z,85
2023-05-15T23:38:48.869Z,85
2023-05-15T23:43:48.955Z,85
2023-05-15T23:48:48.279Z,85
2023-05-15T23:53:47.670Z,85
2023-05-15T23:58:47.066Z,85
